METAR Data
IDs: Format: Raw Decoded Include TAF

Data at: 0121 UTC 01 Mar 2021

PAOM 010053Z 07004KT 10SM CLR M21/M25 A3000 RMK AO2 SLP159 T12061250 $